Last 7 Days

Abernathy 3

Hourly Data | America/Los_Angeles
as of 4/23/24 8:30 PM PDT
Date & Time Temp (°F) RH (%) Dew Pt (°F) Wind Spd (mph) Wind Dir (°) Wind Gust (mph) Wind Gst Dir (°) Latest Rain (In) Daily Rain (In) Daily Min Temp (°F) Daily Max Temp (°F)
4/23/24 - 2000 58.2 63 45.7 7.8 WSW | 244 14.5 W | 260 0.00 0.00 53.4 65.1
4/23/24 - 1900 59.1 61 45.6 9.2 WSW | 241 16.5 SW | 233 0.00 0.00 53.4 65.1
4/23/24 - 1800 60.0 61 46.5 11.1 WSW | 247 19.5 SW | 236 0.00 0.00 53.4 65.1
4/23/24 - 1700 62.0 58 47.2 11.3 WSW | 242 19.5 WSW | 237 0.00 0.00 53.4 65.1
4/23/24 - 1600 63.5 55 47.3 12.2 WSW | 240 21.2 WSW | 258 0.00 0.00 53.4 65.1
4/23/24 - 1500 63.8 56 47.6 11.3 WSW | 238 19.2 SW | 235 0.00 0.00 53.4 64.7
4/23/24 - 1400 62.9 56 47.0 11.4 WSW | 240 20.2 SW | 236 0.00 0.00 53.4 64.2
4/23/24 - 1300 61.6 58 46.7 11.3 SW | 236 18.8 SW | 218 0.00 0.00 53.4 64.2
4/23/24 - 1200 60.8 61 47.1 10.7 WSW | 239 17.5 W | 279 0.00 0.00 53.4 63.0
4/23/24 - 1100 59.4 64 47.0 10.4 WSW | 240 17.5 SW | 236 0.00 0.00 53.4 60.8
4/23/24 - 1000 58.4 65 46.8 9.7 SW | 232 18.5 WSW | 245 0.00 0.00 53.4 59.5
4/23/24 - 0900 56.7 71 47.5 9.3 WSW | 240 15.5 WSW | 247 0.00 0.00 53.4 58.2
4/23/24 - 0800 55.8 73 47.5 7.6 WSW | 244 14.5 SW | 227 0.00 0.00 53.4 56.2
4/23/24 - 0700 55.2 74 46.9 7.7 WSW | 251 15.2 WSW | 256 0.00 0.00 53.4 55.5
4/23/24 - 0600 54.8 75 47.0 8.0 W | 259 16.5 SW | 228 0.00 0.00 53.4 55.1
4/23/24 - 0500 54.4 77 47.2 7.3 W | 273 13.8 WNW | 302 0.00 0.00 53.4 54.6
4/23/24 - 0400 54.2 76 47.0 7.7 W | 273 15.8 W | 269 0.00 0.00 53.4 54.6
4/23/24 - 0300 54.2 76 46.8 8.6 W | 271 20.9 WSW | 246 0.00 0.00 53.4 54.6
4/23/24 - 0200 53.7 77 46.6 6.9 W | 269 13.8 WSW | 246 0.00 0.00 53.4 54.0
4/23/24 - 0100 53.8 77 46.6 5.4 W | 266 13.5 WNW | 283 0.00 0.00 51.3 80.0
4/23/24 - 0000 54.6 75 47.0 6.9 WSW | 248 13.8 W | 262 0.00 0.00 51.3 80.0
4/22/24 - 2300 55.2 76 47.8 8.6 WSW | 239 16.2 WSW | 255 0.00 0.00 51.3 80.0
4/22/24 - 2200 56.0 78 49.1 8.5 SW | 231 17.8 SW | 227 0.00 0.00 51.3 80.0
4/22/24 - 2100 57.0 76 49.4 10.4 SW | 231 18.2 WSW | 242 0.00 0.00 51.3 80.0
4/22/24 - 2000 58.5 72 49.7 8.3 SW | 224 16.2 SSW | 205 0.00 0.00 51.3 80.0
4/22/24 - 1900 62.6 64 50.4 6.5 SW | 231 16.8 WSW | 256 0.00 0.00 51.3 80.0
4/22/24 - 1800 67.8 59 52.9 9.1 SW | 217 16.5 SW | 217 0.00 0.00 51.3 80.0
4/22/24 - 1700 71.5 55 54.6 9.9 SW | 224 18.5 WSW | 252 0.00 0.00 51.3 80.0
4/22/24 - 1600 74.7 53 56.4 9.5 SW | 227 15.8 WSW | 238 0.00 0.00 51.3 80.0
4/22/24 - 1500 77.2 51 57.7 8.3 SSW | 213 14.8 SW | 216 0.00 0.00 51.3 80.0
4/22/24 - 1400 79.1 47 57.2 5.8 SW | 219 9.8 SSW | 210 0.00 0.00 51.3 80.0
4/22/24 - 1300 78.8 46 56.6 4.2 SSW | 204 8.4 SSW | 204 0.00 0.00 51.3 80.0
4/22/24 - 1200 76.9 50 56.7 3.4 SSW | 196 7.8 SSW | 207 0.00 0.00 51.3 78.2
4/22/24 - 1100 75.2 53 57.1 2.7 S | 176 7.1 SSW | 196 0.00 0.00 51.3 76.0
4/22/24 - 1000 71.8 60 57.0 1.6 SSW | 200 4.8 SSW | 200 0.00 0.00 51.3 74.1
4/22/24 - 0900 68.3 71 58.3 0.5 ENE | 66 3.4 SW | 216 0.00 0.00 51.3 71.6
4/22/24 - 0800 58.0 95 56.7 0.4 ENE | 57 0.4 ENE | 57 0.00 0.00 51.3 63.3
4/22/24 - 0700 52.1 100 52.1 0.4 NE | 40 2.4 NE | 34 0.00 0.00 51.3 56.1
4/22/24 - 0600 52.7 100 52.7 0.6 SSW | 193 3.1 S | 190 0.00 0.00 51.8 56.1
4/22/24 - 0500 54.2 97 53.5 1.4 W | 266 4.1 W | 269 0.00 0.00 53.1 56.1
4/22/24 - 0400 54.2 100 54.1 1.7 WSW | 243 4.8 SW | 236 0.00 0.00 53.1 56.1
4/22/24 - 0300 53.7 94 52.1 0.8 WSW | 237 3.4 WSW | 245 0.00 0.00 53.1 56.1
4/22/24 - 0200 55.6 92 53.2 0.8 SW | 218 3.1 WSW | 242 0.00 0.00 54.5 56.1
4/22/24 - 0100 56.1 91 53.4 0.9 WSW | 240 3.4 W | 259 0.00 0.00 48.3 83.2
4/22/24 - 0000 57.7 89 54.4 0.4 SW | 233 2.1 WSW | 255 0.00 0.00 48.3 83.2
4/21/24 - 2300 59.7 85 55.4 0.6 WSW | 243 3.1 W | 277 0.00 0.00 48.3 83.2
4/21/24 - 2200 63.1 78 56.2 0.9 WSW | 251 3.1 WNW | 288 0.00 0.00 48.3 83.2
4/21/24 - 2100 68.0 64 55.3 1.5 W | 263 4.8 WSW | 244 0.00 0.00 48.3 83.2
4/21/24 - 2000 73.3 51 54.0 3.5 SSW | 213 7.4 SSW | 211 0.00 0.00 48.3 83.2
4/21/24 - 1900 79.1 43 54.5 3.6 SW | 223 7.1 SSW | 210 0.00 0.00 48.3 83.2
4/21/24 - 1800 82.1 41 55.8 3.6 SSW | 201 6.8 SSE | 165 0.00 0.00 48.3 83.2
4/21/24 - 1700 82.2 42 56.9 4.4 SSW | 209 8.4 S | 171 0.00 0.00 48.3 83.2
4/21/24 - 1600 82.0 43 57.0 3.9 SSW | 205 8.4 WSW | 244 0.00 0.00 48.3 83.2
4/21/24 - 1500 81.1 41 55.4 2.9 SSW | 192 8.1 S | 186 0.00 0.00 48.3 81.9
4/21/24 - 1400 79.4 43 55.0 2.5 SSW | 210 7.8 SSE | 150 0.00 0.00 48.3 80.9
4/21/24 - 1300 76.6 47 54.9 3.5 SSW | 196 8.1 SSE | 160 0.00 0.00 48.3 77.9
4/21/24 - 1200 74.1 48 53.0 2.6 S | 178 7.4 S | 185 0.00 0.00 48.3 76.0
4/21/24 - 1100 69.7 52 51.5 3.8 SSW | 197 7.8 SSW | 193 0.00 0.00 48.3 71.7
4/21/24 - 1000 67.2 58 51.8 3.5 S | 181 6.8 S | 176 0.00 0.00 48.3 68.9
4/21/24 - 0900 64.2 63 51.1 1.6 WSW | 238 5.4 S | 183 0.00 0.00 48.3 66.6
4/21/24 - 0800 55.1 77 48.1 0.4 NNW | 330 0.4 NNW | 332 0.00 0.00 48.3 60.9
4/21/24 - 0700 49.3 85 45.0 0.6 WNW | 297 3.1 N | 350 0.00 0.00 48.3 58.7
4/21/24 - 0600 53.2 73 44.8 0.8 SW | 219 4.4 SW | 232 0.00 0.00 49.8 58.7
4/21/24 - 0500 54.8 70 45.4 3.2 SW | 228 8.1 SSW | 193 0.00 0.00 53.5 58.7
4/21/24 - 0400 55.3 69 45.2 4.4 SW | 222 7.4 SW | 216 0.00 0.00 55.0 58.7
4/21/24 - 0300 56.6 66 45.5 4.6 SW | 228 10.8 SW | 228 0.00 0.00 55.0 58.7
4/21/24 - 0200 57.6 57 42.5 5.6 SW | 228 10.1 WSW | 239 0.00 0.00 57.0 58.7
4/21/24 - 0100 58.4 50 39.9 5.4 SW | 225 8.8 SW | 225 0.00 0.00 49.5 76.3
4/21/24 - 0000 59.0 50 40.7 4.7 SW | 220 8.1 S | 185 0.00 0.00 49.5 76.3
4/20/24 - 2300 59.3 52 41.9 3.9 SW | 214 7.8 SSW | 209 0.00 0.00 49.5 76.3
4/20/24 - 2200 60.2 49 40.8 4.8 SSW | 213 8.8 SW | 225 0.00 0.00 49.5 76.3
4/20/24 - 2100 61.7 43 39.0 5.1 SW | 217 9.5 SW | 236 0.00 0.00 49.5 76.3
4/20/24 - 2000 66.4 34 37.3 8.1 SW | 226 13.5 SW | 228 0.00 0.00 49.5 76.3
4/20/24 - 1900 71.6 35 42.4 5.1 WSW | 239 11.5 WSW | 241 0.00 0.00 49.5 76.3
4/20/24 - 1800 73.4 34 43.2 7.4 SW | 234 15.5 WSW | 243 0.00 0.00 49.5 76.3
4/20/24 - 1700 74.1 37 46.2 10.7 WSW | 237 19.5 WSW | 245 0.00 0.00 49.5 76.3
4/20/24 - 1600 75.2 45 52.6 9.2 WSW | 238 15.8 SW | 231 0.00 0.00 49.5 76.3
4/20/24 - 1500 75.2 46 53.2 10.1 WSW | 254 19.2 WSW | 248 0.00 0.00 49.5 76.3
4/20/24 - 1400 72.8 49 52.7 11.4 WSW | 253 19.2 WSW | 243 0.00 0.00 49.5 74.1
4/20/24 - 1300 70.6 51 51.4 9.3 WSW | 243 17.2 W | 263 0.00 0.00 49.5 71.8
4/20/24 - 1200 66.0 60 51.6 8.0 SSW | 203 13.8 S | 186 0.00 0.00 49.5 68.9
4/20/24 - 1100 62.6 63 50.0 8.1 SW | 219 13.2 SSW | 206 0.00 0.00 49.5 64.4
4/20/24 - 1000 60.0 68 49.2 7.6 SW | 227 13.2 SW | 215 0.00 0.00 49.5 61.3
4/20/24 - 0900 55.1 79 48.8 6.7 SW | 224 11.5 SSW | 204 0.00 0.00 49.5 57.6
4/20/24 - 0800 51.1 90 48.2 5.8 SW | 222 10.5 SW | 221 0.00 0.00 49.5 55.0
4/20/24 - 0700 49.9 90 47.1 4.8 SSW | 209 10.1 S | 187 0.00 0.00 49.5 55.0
4/20/24 - 0600 50.5 90 47.8 7.2 SW | 222 14.5 SW | 220 0.00 0.00 50.0 55.0
4/20/24 - 0500 50.4 90 47.6 8.6 SSW | 211 14.5 SW | 235 0.00 0.00 50.0 55.0
4/20/24 - 0400 52.2 86 48.1 5.6 SSW | 207 10.8 SW | 219 0.00 0.00 51.6 55.0
4/20/24 - 0300 53.0 83 48.1 7.6 SW | 218 13.2 SW | 224 0.00 0.00 52.1 55.0
4/20/24 - 0200 54.2 81 48.5 7.5 SW | 224 14.5 SW | 220 0.00 0.00 53.6 55.0
4/20/24 - 0100 54.6 79 48.3 7.5 SW | 215 12.8 SSW | 202 0.00 0.00 51.4 73.9
4/20/24 - 0000 56.8 72 47.8 7.9 SW | 224 12.8 SSW | 203 0.00 0.00 51.4 73.9
4/19/24 - 2300 58.0 67 47.3 6.6 SW | 216 10.8 SW | 225 0.00 0.00 51.4 73.9
4/19/24 - 2200 59.0 64 46.7 4.9 SW | 222 10.8 WSW | 246 0.00 0.00 51.4 73.9
4/19/24 - 2100 61.0 60 47.0 6.4 SW | 236 15.8 WSW | 257 0.00 0.00 51.4 73.9
4/19/24 - 2000 63.2 63 50.5 4.7 WSW | 238 12.5 WSW | 247 0.00 0.00 51.4 73.9
4/19/24 - 1900 67.5 62 54.0 6.6 SW | 227 12.5 SSW | 211 0.00 0.00 51.4 73.9
4/19/24 - 1800 70.2 60 55.9 8.2 SW | 224 13.5 SSW | 212 0.00 0.00 51.4 73.9
4/19/24 - 1700 72.6 57 56.6 10.0 WSW | 249 16.8 W | 279 0.00 0.00 51.4 73.9
4/19/24 - 1600 73.2 53 55.2 11.0 WSW | 244 17.2 W | 259 0.00 0.00 51.4 73.9
4/19/24 - 1500 71.8 55 54.6 10.5 WSW | 249 17.5 WSW | 246 0.00 0.00 51.4 73.0
4/19/24 - 1400 69.8 60 55.2 8.5 WSW | 243 15.5 W | 270 0.00 0.00 51.4 71.4
4/19/24 - 1300 65.6 66 53.9 8.8 SW | 219 14.2 SW | 219 0.00 0.00 51.4 67.8
4/19/24 - 1200 62.9 70 52.9 9.4 SW | 218 16.2 SW | 226 0.00 0.00 51.4 64.3
4/19/24 - 1100 60.7 73 51.9 9.3 SW | 219 14.8 SW | 229 0.00 0.00 51.4 61.9
4/19/24 - 1000 58.7 76 51.2 8.4 SSW | 212 13.5 SW | 220 0.00 0.00 51.4 59.8
4/19/24 - 0900 56.6 78 50.0 7.7 SW | 218 12.5 SW | 217 0.00 0.00 51.4 57.6
4/19/24 - 0800 53.9 83 48.8 6.0 SW | 222 12.5 WSW | 239 0.00 0.00 51.4 56.1
4/19/24 - 0700 51.7 87 47.9 4.9 SSW | 212 9.8 SW | 229 0.00 0.00 51.4 56.1
4/19/24 - 0600 52.2 86 48.2 4.6 SSW | 213 8.1 SW | 222 0.00 0.00 51.7 56.1
4/19/24 - 0500 52.8 87 49.0 6.7 SW | 219 11.1 SW | 216 0.00 0.00 52.6 56.1
4/19/24 - 0400 53.3 88 49.7 8.1 SW | 223 13.5 SW | 230 0.00 0.00 53.1 56.1
4/19/24 - 0300 54.7 83 49.6 7.7 SW | 218 12.5 SSW | 203 0.00 0.00 53.8 56.1
4/19/24 - 0200 55.9 81 50.1 7.1 SW | 217 11.1 SW | 223 0.00 0.00 55.6 56.1
4/19/24 - 0100 56.6 79 50.2 6.6 SW | 216 11.5 SW | 220 0.00 0.02 47.8 79.8
4/19/24 - 0000 56.7 79 50.1 5.4 SW | 216 9.5 SW | 217 0.00 0.02 47.8 79.8
4/18/24 - 2300 59.0 72 50.0 5.9 SW | 221 10.1 SSW | 209 0.00 0.02 47.8 79.8
4/18/24 - 2200 59.9 71 50.3 5.7 SW | 226 9.8 SW | 228 0.00 0.02 47.8 79.8
4/18/24 - 2100 63.1 65 51.2 3.4 SW | 219 7.4 SSW | 208 0.00 0.02 47.8 79.8
4/18/24 - 2000 66.8 59 52.2 4.9 WSW | 237 11.5 W | 271 0.00 0.02 47.8 79.8
4/18/24 - 1900 70.6 50 51.1 5.4 SW | 216 10.8 SW | 215 0.00 0.02 47.8 79.8
4/18/24 - 1800 74.2 45 51.4 6.9 SW | 229 13.8 SSW | 206 0.00 0.02 47.8 79.8
4/18/24 - 1700 76.0 44 52.7 7.8 SW | 234 13.5 WSW | 251 0.00 0.02 47.8 79.8
4/18/24 - 1600 77.9 41 51.9 5.6 WSW | 237 12.5 WSW | 253 0.00 0.02 47.8 79.8
4/18/24 - 1500 78.7 33 47.0 2.4 SSW | 213 7.4 WSW | 242 0.00 0.02 47.8 79.8
4/18/24 - 1400 78.1 31 44.8 2.2 SW | 218 8.1 WSW | 257 0.00 0.02 47.8 79.0
4/18/24 - 1300 76.1 37 47.5 1.9 SSW | 201 7.1 SSW | 201 0.00 0.02 47.8 77.9
4/18/24 - 1200 73.1 43 49.3 1.5 SSW | 207 6.1 SSE | 166 0.00 0.02 47.8 75.0
4/18/24 - 1100 70.2 52 51.7 1.6 S | 187 5.4 SSW | 198 0.00 0.02 47.8 72.1
4/18/24 - 1000 67.0 62 53.6 1.7 S | 183 5.4 S | 182 0.00 0.02 47.8 69.6
4/18/24 - 0900 64.6 75 56.4 0.4 WNW | 284 0.4 WNW | 287 0.00 0.02 47.8 67.3
4/18/24 - 0800 54.2 100 54.0 0.4 WNW | 287 0.4 WNW | 287 0.00 0.02 47.8 60.3
4/18/24 - 0700 48.8 100 48.8 0.4 WNW | 288 2.4 WNW | 287 0.00 0.02 47.8 55.4
4/18/24 - 0600 49.2 100 49.2 0.4 WNW | 288 2.1 WNW | 289 0.00 0.02 47.8 55.4
4/18/24 - 0500 51.2 100 51.3 0.4 WNW | 287 0.4 WNW | 287 0.00 0.02 50.3 55.4
4/18/24 - 0400 51.8 100 51.8 0.4 WSW | 246 1.4 WNW | 288 0.00 0.02 51.3 55.4
4/18/24 - 0300 52.2 100 52.2 0.4 SE | 146 0.4 SE | 146 0.00 0.02 51.8 55.4
4/18/24 - 0200 53.7 97 52.8 0.4 SE | 144 1.4 SE | 145 0.02 0.02 52.4 55.4
4/18/24 - 0100 56.0 89 53.0 1.3 NW | 305 4.1 WNW | 302 0.00 0.00 48.0 79.8
4/18/24 - 0000 57.8 87 54.0 2.5 NW | 309 5.1 NW | 319 0.00 0.00 48.0 79.8
4/17/24 - 2300 58.6 85 54.1 1.9 WNW | 301 4.4 NW | 307 0.00 0.00 48.0 79.8
4/17/24 - 2200 61.6 77 54.4 2.8 NW | 316 5.4 NW | 316 0.00 0.00 48.0 79.8
4/17/24 - 2100 63.1 75 55.1 1.4 NW | 313 6.4 NNW | 342 0.00 0.00 48.0 79.8
4/17/24 - 2000 74.2 52 55.4 0.4 SSW | 212 1.4 WSW | 250 0.00 0.00 48.0 79.8
4/17/24 - 1900 77.9 42 52.9 0.8 SSW | 192 5.4 SW | 219 0.00 0.00 48.0 79.8
4/17/24 - 1800 78.5 38 50.8 1.8 S | 186 6.1 S | 176 0.00 0.00 48.0 79.8
4/17/24 - 1700 78.2 38 50.2 1.8 SSE | 168 6.1 S | 179 0.00 0.00 48.0 78.8
4/17/24 - 1600 78.0 35 48.2 1.5 NE | 39 6.1 NNE | 20 0.00 0.00 48.0 78.8
4/17/24 - 1500 76.2 39 49.6 2.9 NE | 36 7.8 NE | 51 0.00 0.00 48.0 77.7
4/17/24 - 1400 74.4 47 53.0 4.6 NE | 48 9.5 ENE | 67 0.00 0.00 48.0 75.1
4/17/24 - 1300 72.2 55 55.2 5.0 NE | 54 9.5 ENE | 61 0.00 0.00 48.0 73.2
4/17/24 - 1200 71.0 56 54.6 5.5 ENE | 61 9.8 NE | 53 0.00 0.00 48.0 71.7
4/17/24 - 1100 69.5 61 55.2 2.5 NNE | 23 8.8 NE | 41 0.00 0.00 48.0 70.2
4/17/24 - 1000 65.2 70 55.0 0.6 SSW | 194 3.1 SSW | 195 0.00 0.00 48.0 67.7
4/17/24 - 0900 59.8 89 56.4 0.4 N | 358 2.1 NNW | 332 0.00 0.00 48.0 63.8
4/17/24 - 0800 51.4 100 51.4 0.6 NW | 323 3.1 N | 6 0.00 0.00 48.0 56.3
4/17/24 - 0700 48.5 100 48.5 1.0 NNE | 28 4.4 E | 90 0.00 0.00 48.0 53.0
4/17/24 - 0600 48.9 100 48.9 0.6 NNW | 348 2.4 N | 354 0.00 0.00 48.0 53.0
4/17/24 - 0500 49.0 100 49.0 0.4 NNE | 33 2.1 N | 349 0.00 0.00 48.2 53.0
4/17/24 - 0400 50.2 100 50.3 0.6 NNE | 23 2.7 NW | 325 0.00 0.00 49.4 53.0
4/17/24 - 0300 51.2 99 50.9 0.5 WSW | 252 2.7 N | 355 0.00 0.00 50.5 53.0
4/17/24 - 0200 52.2 93 50.4 0.5 SW | 233 2.4 SSW | 208 0.00 0.00 51.7 53.0
4/17/24 - 0100 53.9 90 51.1 0.4 WSW | 240 0.4 SW | 218 0.00 0.00 43.1 75.0
4/17/24 - 0000 54.7 88 51.4 0.4 W | 263 0.4 WNW | 293 0.00 0.00 43.1 75.0
4/16/24 - 2300 56.2 86 52.0 1.5 NW | 309 4.4 NW | 323 0.00 0.00 43.1 75.0
4/16/24 - 2200 58.7 79 52.2 0.8 WNW | 284 3.8 WNW | 287 0.00 0.00 43.1 75.0
4/16/24 - 2100 62.6 70 52.6 1.0 WSW | 242 4.8 SSW | 207 0.00 0.00 43.1 75.0
Max 82.2 100 58.3 12.2 - 21.2 - 0.02 0.02 57.0 83.2
Avg 62.5 68 50.5 4.9 - 9.8 - 0.00 - - -
Min 48.5 31 37.3 0.4 - 0.4 - 0.00 0.00 43.1 53.0
Total - - - - - - - 0.02 - - -
Tip: Bookmark this page for easy future reference